createdAt,value
2018-04-29T00:00:43.812Z,48.30
2018-04-29T00:03:12.097Z,48.60
2018-04-29T00:05:40.404Z,48.60
2018-04-29T00:08:08.868Z,48.50
2018-04-29T00:10:37.143Z,48.70
2018-04-29T00:13:04.691Z,48.70
2018-04-29T00:15:32.199Z,48.70
2018-04-29T00:17:59.719Z,48.70
2018-04-29T00:20:27.241Z,48.70
2018-04-29T00:22:56.704Z,48.60
2018-04-29T00:25:24.203Z,48.80
2018-04-29T00:27:51.700Z,48.70
2018-04-29T00:30:19.241Z,49.40
2018-04-29T00:32:46.765Z,49.20
2018-04-29T00:35:14.290Z,49.10
2018-04-29T00:37:41.821Z,48.90
2018-04-29T00:40:09.324Z,48.90
2018-04-29T00:42:38.791Z,49.40
2018-04-29T00:45:06.305Z,47.80
2018-04-29T00:47:33.834Z,47.20
2018-04-29T00:50:01.332Z,46.90
2018-04-29T00:52:29.601Z,45.60
2018-04-29T00:54:57.128Z,45.50
2018-04-29T00:57:24.644Z,45.90
2018-04-29T00:59:54.101Z,45.80
2018-04-29T01:02:21.614Z,45.60
2018-04-29T01:04:49.116Z,45.50
2018-04-29T01:07:17.399Z,45.80
2018-04-29T01:09:44.900Z,45.80
2018-04-29T01:12:12.432Z,45.80
2018-04-29T01:14:40.703Z,45.70
2018-04-29T01:17:09.005Z,45.70
2018-04-29T01:19:36.501Z,45.70
2018-04-29T01:22:04.951Z,45.60
2018-04-29T01:24:32.487Z,45.60
2018-04-29T01:27:00.750Z,45.40
2018-04-29T01:29:29.056Z,45.40
2018-04-29T01:31:57.527Z,45.40
2018-04-29T01:34:25.062Z,45.40
2018-04-29T01:36:53.329Z,45.30
2018-04-29T01:39:21.589Z,45.00
2018-04-29T01:41:49.135Z,45.00
2018-04-29T01:44:16.661Z,44.60
2018-04-29T01:46:44.216Z,44.40
2018-04-29T01:49:11.723Z,44.40
2018-04-29T01:51:39.306Z,44.10
2018-04-29T01:54:06.784Z,44.60
2018-04-29T01:56:34.317Z,43.60
2018-04-29T01:59:02.615Z,43.30
2018-04-29T02:01:30.125Z,43.30
2018-04-29T02:03:57.668Z,43.30
2018-04-29T02:06:25.181Z,43.40
2018-04-29T02:08:54.686Z,43.50
2018-04-29T02:11:22.196Z,43.40
2018-04-29T02:13:49.714Z,43.50
2018-04-29T02:16:17.241Z,43.60
2018-04-29T02:18:45.516Z,43.40
2018-04-29T02:21:13.816Z,43.60
2018-04-29T02:23:41.319Z,43.60
2018-04-29T02:26:10.782Z,43.60
2018-04-29T02:28:38.311Z,43.40
2018-04-29T02:31:06.576Z,43.40
2018-04-29T02:33:34.876Z,43.50
2018-04-29T02:36:02.387Z,43.30
2018-04-29T02:38:29.910Z,43.30
2018-04-29T02:40:58.354Z,43.40
2018-04-29T02:43:26.659Z,43.40
2018-04-29T02:45:54.163Z,43.40
2018-04-29T02:48:21.672Z,43.40
2018-04-29T02:50:49.195Z,43.40
2018-04-29T02:53:18.415Z,43.20
2018-04-29T02:55:45.948Z,43.20
2018-04-29T02:58:14.218Z,43.30
2018-04-29T03:00:42.511Z,43.30
2018-04-29T03:03:10.032Z,43.30
2018-04-29T03:05:37.538Z,43.50
2018-04-29T03:08:05.084Z,43.40
2018-04-29T03:10:32.605Z,43.50
2018-04-29T03:13:00.143Z,43.50
2018-04-29T03:15:27.655Z,43.50
2018-04-29T03:17:55.195Z,43.40
2018-04-29T03:20:22.688Z,43.40
2018-04-29T03:22:50.231Z,43.30
2018-04-29T03:25:17.751Z,43.30
2018-04-29T03:27:45.256Z,43.40
2018-04-29T03:30:12.781Z,43.50
2018-04-29T03:32:41.091Z,43.30
2018-04-29T03:35:08.611Z,43.30
2018-04-29T03:37:36.887Z,43.40
2018-04-29T03:40:04.416Z,43.40
2018-04-29T03:42:31.917Z,43.50
2018-04-29T03:45:01.121Z,43.50
2018-04-29T03:47:28.651Z,43.50
2018-04-29T03:49:56.154Z,43.60
2018-04-29T03:52:23.683Z,43.60
2018-04-29T03:54:51.956Z,43.60
2018-04-29T03:57:32.296Z,43.70
2018-04-29T04:00:11.702Z,43.70
2018-04-29T04:02:51.226Z,43.70
2018-04-29T04:05:19.468Z,43.60
2018-04-29T04:07:47.745Z,43.60
2018-04-29T04:10:15.263Z,43.60
2018-04-29T04:12:42.850Z,43.70
2018-04-29T04:15:10.338Z,43.90
2018-04-29T04:17:37.840Z,43.90
2018-04-29T04:20:08.113Z,43.70
2018-04-29T04:22:35.660Z,43.70
2018-04-29T04:25:03.152Z,43.80
2018-04-29T04:27:30.686Z,43.90
2018-04-29T04:29:59.157Z,43.80
2018-04-29T04:32:26.687Z,43.70
2018-04-29T04:34:54.961Z,44.20
2018-04-29T04:37:23.251Z,43.80
2018-04-29T04:39:51.533Z,43.80
2018-04-29T04:42:20.002Z,43.70
2018-04-29T04:44:48.288Z,43.80
2018-04-29T04:47:15.799Z,43.90
2018-04-29T04:49:43.342Z,43.80
2018-04-29T04:52:10.853Z,44.10
2018-04-29T04:54:39.152Z,44.20
2018-04-29T04:57:06.648Z,44.10
2018-04-29T04:59:34.163Z,44.10
2018-04-29T05:02:01.722Z,44.20
2018-04-29T05:04:29.244Z,44.20
2018-04-29T05:06:57.545Z,44.20
2018-04-29T05:09:25.051Z,44.20
2018-04-29T05:11:54.524Z,44.30
2018-04-29T05:14:22.040Z,44.30
2018-04-29T05:16:50.307Z,44.60
2018-04-29T05:19:18.591Z,44.60
2018-04-29T05:21:46.859Z,44.70
2018-04-29T05:24:14.385Z,44.70
2018-04-29T05:26:42.839Z,44.80
2018-04-29T05:29:10.377Z,44.80
2018-04-29T05:31:37.930Z,44.80
2018-04-29T05:34:06.217Z,44.80
2018-04-29T05:36:33.760Z,44.80
2018-04-29T05:39:02.068Z,45.00
2018-04-29T05:41:29.603Z,44.90
2018-04-29T05:43:57.103Z,45.00
2018-04-29T05:46:24.633Z,45.00
2018-04-29T05:48:52.143Z,45.20
2018-04-29T05:51:19.651Z,45.20
2018-04-29T05:53:47.179Z,45.40
2018-04-29T05:56:15.447Z,45.40
2018-04-29T05:58:43.763Z,45.50
2018-04-29T06:01:11.263Z,45.50
2018-04-29T06:03:38.810Z,45.50
2018-04-29T06:06:06.365Z,45.70
2018-04-29T06:08:33.906Z,45.40
2018-04-29T06:11:01.413Z,45.40
2018-04-29T06:13:29.688Z,45.40
2018-04-29T06:15:58.008Z,45.40
2018-04-29T06:18:26.492Z,45.40
2018-04-29T06:20:54.020Z,45.50
2018-04-29T06:23:21.511Z,45.60
2018-04-29T06:25:49.034Z,45.50
2018-04-29T06:28:16.550Z,45.50
2018-04-29T06:30:45.013Z,45.60
2018-04-29T06:33:12.547Z,45.60
2018-04-29T06:35:40.046Z,45.40
2018-04-29T06:38:07.574Z,45.50
2018-04-29T06:40:35.087Z,45.60
2018-04-29T06:43:03.380Z,45.80
2018-04-29T06:45:30.885Z,45.80
2018-04-29T06:47:58.409Z,45.80
2018-04-29T06:50:25.947Z,45.90
2018-04-29T06:52:53.475Z,46.40
2018-04-29T06:55:22.680Z,45.70
2018-04-29T06:57:50.952Z,45.70
2018-04-29T07:00:19.262Z,45.60
2018-04-29T07:02:46.779Z,45.50
2018-04-29T07:05:15.083Z,45.50
2018-04-29T07:07:42.631Z,45.50
2018-04-29T07:10:10.163Z,45.50
2018-04-29T07:12:38.503Z,45.50
2018-04-29T07:15:06.014Z,45.50
2018-04-29T07:17:34.323Z,45.80
2018-04-29T07:20:01.876Z,45.80
2018-04-29T07:22:29.385Z,46.00
2018-04-29T07:24:56.889Z,46.10
2018-04-29T07:27:24.415Z,46.20
2018-04-29T07:29:52.696Z,46.40
2018-04-29T07:32:20.989Z,46.40
2018-04-29T07:34:48.536Z,46.40
2018-04-29T07:37:16.809Z,46.40
2018-04-29T07:39:45.210Z,46.50
2018-04-29T07:42:12.656Z,46.50
2018-04-29T07:44:40.171Z,46.60
2018-04-29T07:47:08.435Z,46.60
2018-04-29T07:49:35.959Z,46.50
2018-04-29T07:52:03.551Z,46.50
2018-04-29T07:54:30.999Z,46.50
2018-04-29T07:56:58.575Z,46.40
2018-04-29T07:59:27.045Z,46.40
2018-04-29T08:01:56.096Z,46.40
2018-04-29T08:04:23.623Z,46.40
2018-04-29T08:06:51.206Z,46.50
2018-04-29T08:09:18.661Z,46.50
2018-04-29T08:11:48.184Z,46.50
2018-04-29T08:14:15.690Z,46.50
2018-04-29T08:16:44.710Z,46.50
2018-04-29T08:19:12.239Z,46.50
2018-04-29T08:21:40.529Z,46.60
2018-04-29T08:24:08.907Z,46.60
2018-04-29T08:26:38.167Z,46.50
2018-04-29T08:29:05.691Z,46.50
2018-04-29T08:31:33.185Z,46.60
2018-04-29T08:34:00.727Z,46.60
2018-04-29T08:36:28.227Z,46.50
2018-04-29T08:38:56.493Z,46.90
2018-04-29T08:41:24.818Z,46.50
2018-04-29T08:43:52.335Z,46.50
2018-04-29T08:46:20.629Z,46.60
2018-04-29T08:48:48.128Z,46.50
2018-04-29T08:51:15.655Z,46.60
2018-04-29T08:53:43.182Z,46.60
2018-04-29T08:56:11.503Z,46.60
2018-04-29T08:58:39.021Z,46.60
2018-04-29T09:01:07.283Z,46.60
2018-04-29T09:03:34.808Z,46.60
2018-04-29T09:06:02.327Z,46.60
2018-04-29T09:08:29.919Z,46.50
2018-04-29T09:10:57.429Z,46.50
2018-04-29T09:13:27.681Z,46.60
2018-04-29T09:15:56.217Z,46.60
2018-04-29T09:18:23.692Z,46.50
2018-04-29T09:20:52.016Z,46.60
2018-04-29T09:23:19.512Z,46.60
2018-04-29T09:25:47.799Z,46.50
2018-04-29T09:28:16.068Z,47.20
2018-04-29T09:30:46.340Z,46.50
2018-04-29T09:33:13.859Z,46.50
2018-04-29T09:35:42.154Z,46.50
2018-04-29T09:38:09.644Z,46.50
2018-04-29T09:40:37.151Z,46.50
2018-04-29T09:43:04.714Z,46.50
2018-04-29T09:45:32.230Z,46.60
2018-04-29T09:47:59.772Z,46.60
2018-04-29T09:50:27.317Z,46.50
2018-04-29T09:52:54.836Z,46.60
2018-04-29T09:55:22.373Z,46.70
2018-04-29T09:57:49.912Z,46.60
2018-04-29T10:00:30.808Z,46.60
2018-04-29T10:03:04.804Z,46.70
2018-04-29T10:05:32.344Z,46.70
2018-04-29T10:08:00.832Z,46.70
2018-04-29T10:10:28.364Z,46.70
2018-04-29T10:12:55.868Z,46.70
2018-04-29T10:15:24.153Z,46.70
2018-04-29T10:17:52.419Z,46.70
2018-04-29T10:20:20.712Z,46.70
2018-04-29T10:22:48.219Z,46.70
2018-04-29T10:25:15.752Z,46.80
2018-04-29T10:27:43.264Z,46.80
2018-04-29T10:30:11.534Z,47.10
2018-04-29T10:32:39.118Z,47.10
2018-04-29T10:35:06.590Z,47.30
2018-04-29T10:37:34.099Z,48.00
2018-04-29T10:40:02.422Z,47.60
2018-04-29T10:42:29.928Z,47.30
2018-04-29T10:44:57.459Z,47.30
2018-04-29T10:47:24.953Z,47.30
2018-04-29T10:49:55.940Z,47.50
2018-04-29T10:52:23.500Z,47.50
2018-04-29T10:54:51.780Z,47.50
2018-04-29T10:57:19.279Z,47.50
2018-04-29T10:59:46.811Z,47.40
2018-04-29T11:02:14.387Z,47.60
2018-04-29T11:04:41.903Z,47.60
2018-04-29T11:07:09.411Z,47.40
2018-04-29T11:09:36.939Z,47.70
2018-04-29T11:12:04.453Z,47.60
2018-04-29T11:14:32.003Z,47.50
2018-04-29T11:17:00.300Z,47.60
2018-04-29T11:19:27.830Z,47.60
2018-04-29T11:21:56.095Z,47.70
2018-04-29T11:24:26.361Z,47.90
2018-04-29T11:26:53.902Z,48.00
2018-04-29T11:29:21.431Z,47.70
2018-04-29T11:31:50.726Z,47.90
2018-04-29T11:34:18.252Z,47.90
2018-04-29T11:36:45.771Z,48.00
2018-04-29T11:39:13.298Z,47.70
2018-04-29T11:41:40.825Z,47.60
2018-04-29T11:44:08.327Z,48.00
2018-04-29T11:46:36.636Z,47.90
2018-04-29T11:49:04.139Z,47.90
2018-04-29T11:51:34.418Z,47.70
2018-04-29T11:54:01.922Z,47.70
2018-04-29T11:56:29.467Z,47.70
2018-04-29T11:58:56.969Z,48.00
2018-04-29T12:01:24.490Z,48.00
2018-04-29T12:03:51.989Z,47.90
2018-04-29T12:06:19.479Z,48.00
2018-04-29T12:08:47.013Z,48.00
2018-04-29T12:11:14.504Z,48.30
2018-04-29T12:13:42.039Z,48.40
2018-04-29T12:16:09.543Z,48.10
2018-04-29T12:18:37.838Z,48.00
2018-04-29T12:21:05.353Z,48.00
2018-04-29T12:23:33.682Z,49.30
2018-04-29T12:26:01.186Z,48.70
2018-04-29T12:28:28.686Z,48.60
2018-04-29T12:30:56.215Z,48.30
2018-04-29T12:33:24.483Z,48.50
2018-04-29T12:35:53.517Z,48.50
2018-04-29T12:38:21.047Z,48.50
2018-04-29T12:40:48.551Z,48.40
2018-04-29T12:43:16.078Z,48.40
2018-04-29T12:45:43.665Z,48.30
2018-04-29T12:48:12.143Z,49.00
2018-04-29T12:50:39.676Z,48.30
2018-04-29T12:53:07.982Z,48.30
2018-04-29T12:55:35.533Z,48.30
2018-04-29T12:58:03.033Z,48.40
2018-04-29T13:00:30.587Z,48.40
2018-04-29T13:02:58.996Z,48.40
2018-04-29T13:05:27.306Z,48.50
2018-04-29T13:07:54.813Z,48.40
2018-04-29T13:10:22.325Z,48.70
2018-04-29T13:12:49.846Z,48.60
2018-04-29T13:15:18.122Z,48.70
2018-04-29T13:17:45.694Z,48.70
2018-04-29T13:20:13.203Z,48.80
2018-04-29T13:22:40.722Z,48.80
2018-04-29T13:25:09.221Z,48.80
2018-04-29T13:27:36.753Z,48.80
2018-04-29T13:30:04.256Z,48.90
2018-04-29T13:32:33.283Z,48.80
2018-04-29T13:35:01.582Z,48.80
2018-04-29T13:37:29.091Z,48.80
2018-04-29T13:39:58.559Z,48.80
2018-04-29T13:42:26.172Z,49.40
2018-04-29T13:44:53.629Z,48.80
2018-04-29T13:47:21.907Z,48.70
2018-04-29T13:49:52.149Z,48.80
2018-04-29T13:52:19.672Z,48.90
2018-04-29T13:54:47.977Z,49.30
2018-04-29T13:57:17.516Z,49.30
2018-04-29T13:59:45.012Z,49.30
2018-04-29T14:02:13.321Z,49.10
2018-04-29T14:04:40.820Z,49.10
2018-04-29T14:07:08.376Z,49.10
2018-04-29T14:09:35.872Z,49.00
2018-04-29T14:12:04.170Z,49.10
2018-04-29T14:14:32.634Z,49.10
2018-04-29T14:17:00.154Z,49.10
2018-04-29T14:19:28.452Z,49.00
2018-04-29T14:21:56.722Z,49.00
2018-04-29T14:24:26.980Z,49.10
2018-04-29T14:26:54.483Z,49.00
2018-04-29T14:29:22.802Z,49.00
2018-04-29T14:31:50.333Z,48.90
2018-04-29T14:34:18.616Z,49.00
2018-04-29T14:36:46.918Z,49.00
2018-04-29T14:39:14.427Z,48.90
2018-04-29T14:41:42.727Z,48.90
2018-04-29T14:44:11.004Z,48.80
2018-04-29T14:46:38.535Z,48.80
2018-04-29T14:49:07.006Z,48.90
2018-04-29T14:51:34.547Z,48.90
2018-04-29T14:54:02.064Z,48.70
2018-04-29T14:56:29.640Z,48.80
2018-04-29T14:58:57.168Z,48.70
2018-04-29T15:01:25.496Z,48.70
2018-04-29T15:03:52.991Z,48.70
2018-04-29T15:06:21.264Z,48.80
2018-04-29T15:08:49.575Z,48.70
2018-04-29T15:11:17.079Z,49.30
2018-04-29T15:13:44.612Z,48.60
2018-04-29T15:16:12.121Z,48.70
2018-04-29T15:18:51.527Z,48.60
2018-04-29T15:21:19.048Z,48.70
2018-04-29T15:23:46.561Z,48.60
2018-04-29T15:26:14.868Z,48.70
2018-04-29T15:28:42.378Z,48.70
2018-04-29T15:31:09.938Z,48.80
2018-04-29T15:33:37.439Z,48.80
2018-04-29T15:36:04.967Z,48.70
2018-04-29T15:38:33.248Z,48.80
2018-04-29T15:41:01.525Z,48.70
2018-04-29T15:43:29.816Z,48.80
2018-04-29T15:45:57.355Z,48.70
2018-04-29T15:48:25.679Z,48.80
2018-04-29T15:50:53.183Z,48.80
2018-04-29T15:53:21.503Z,48.80
2018-04-29T15:55:49.013Z,48.80
2018-04-29T15:58:16.512Z,48.80
2018-04-29T16:00:44.032Z,48.80
2018-04-29T16:03:12.308Z,48.80
2018-04-29T16:05:42.539Z,48.80
2018-04-29T16:08:10.811Z,48.80
2018-04-29T16:10:39.116Z,48.90
2018-04-29T16:13:06.616Z,48.80
2018-04-29T16:15:34.124Z,48.90
2018-04-29T16:18:01.658Z,48.90
2018-04-29T16:20:29.929Z,48.80
2018-04-29T16:22:58.219Z,49.00
2018-04-29T16:25:27.741Z,48.90
2018-04-29T16:27:56.199Z,49.00
2018-04-29T16:30:24.484Z,49.00
2018-04-29T16:32:52.030Z,48.90
2018-04-29T16:35:20.311Z,49.00
2018-04-29T16:37:47.819Z,48.90
2018-04-29T16:40:15.354Z,48.90
2018-04-29T16:42:42.862Z,48.90
2018-04-29T16:45:11.160Z,48.90
2018-04-29T16:47:38.676Z,48.90
2018-04-29T16:50:06.224Z,48.90
2018-04-29T16:52:33.744Z,48.80
2018-04-29T16:55:03.263Z,49.00
2018-04-29T16:57:30.787Z,49.00
2018-04-29T16:59:58.300Z,49.00
2018-04-29T17:02:25.839Z,49.00
2018-04-29T17:04:53.339Z,48.80
2018-04-29T17:07:21.646Z,49.00
2018-04-29T17:09:49.162Z,49.00
2018-04-29T17:12:16.695Z,48.90
2018-04-29T17:14:45.121Z,49.00
2018-04-29T17:17:13.428Z,49.00
2018-04-29T17:19:40.937Z,48.90
2018-04-29T17:22:09.411Z,48.90
2018-04-29T17:24:37.745Z,49.00
2018-04-29T17:27:05.256Z,49.00
2018-04-29T17:29:33.563Z,49.00
2018-04-29T17:32:02.155Z,49.00
2018-04-29T17:34:31.648Z,48.90
2018-04-29T17:36:59.181Z,48.90
2018-04-29T17:39:27.459Z,49.00
2018-04-29T17:41:55.764Z,48.90
2018-04-29T17:44:23.278Z,48.90
2018-04-29T17:46:50.810Z,48.90
2018-04-29T17:49:19.271Z,49.00
2018-04-29T17:51:46.800Z,49.00
2018-04-29T17:54:14.310Z,49.00
2018-04-29T17:56:42.784Z,49.00
2018-04-29T17:59:10.349Z,48.90
2018-04-29T18:01:37.894Z,48.90
2018-04-29T18:04:05.432Z,48.90
2018-04-29T18:06:32.960Z,48.90
2018-04-29T18:09:01.299Z,48.90
2018-04-29T18:11:29.785Z,49.00
2018-04-29T18:13:57.300Z,48.90
2018-04-29T18:16:24.853Z,49.00
2018-04-29T18:18:52.444Z,49.00
2018-04-29T18:21:19.983Z,49.00
2018-04-29T18:23:47.502Z,49.00
2018-04-29T18:26:15.795Z,49.00
2018-04-29T18:28:43.323Z,49.00
2018-04-29T18:31:11.621Z,49.10
2018-04-29T18:33:39.146Z,49.00
2018-04-29T18:36:08.164Z,49.00
2018-04-29T18:38:36.465Z,49.00
2018-04-29T18:41:04.011Z,49.00
2018-04-29T18:43:31.534Z,48.90
2018-04-29T18:45:59.074Z,48.90
2018-04-29T18:48:26.583Z,49.00
2018-04-29T18:50:54.363Z,49.00
2018-04-29T18:53:22.405Z,49.00
2018-04-29T18:55:50.721Z,49.00
2018-04-29T18:58:18.269Z,49.00
2018-04-29T19:00:45.783Z,48.90
2018-04-29T19:03:14.081Z,49.00
2018-04-29T19:05:47.615Z,49.00
2018-04-29T19:08:15.149Z,49.00
2018-04-29T19:10:43.626Z,49.00
2018-04-29T19:13:11.131Z,49.00
2018-04-29T19:15:38.667Z,49.00
2018-04-29T19:18:07.140Z,49.00
2018-04-29T19:20:34.678Z,49.00
2018-04-29T19:23:02.180Z,49.00
2018-04-29T19:25:29.735Z,49.00
2018-04-29T19:27:58.036Z,49.00
2018-04-29T19:33:00.325Z,48.90
2018-04-29T19:35:28.629Z,49.00
2018-04-29T19:37:56.135Z,49.00
2018-04-29T19:40:23.648Z,49.00
2018-04-29T19:42:51.191Z,49.00
2018-04-29T19:45:18.685Z,49.00
2018-04-29T19:47:46.220Z,49.00
2018-04-29T19:50:13.744Z,49.00
2018-04-29T19:52:42.050Z,49.00
2018-04-29T19:55:09.615Z,49.00
2018-04-29T19:57:37.126Z,49.00
2018-04-29T20:00:05.437Z,49.10
2018-04-29T20:02:32.939Z,49.00
2018-04-29T20:05:00.470Z,49.00
2018-04-29T20:07:27.974Z,49.00
2018-04-29T20:09:56.312Z,49.00
2018-04-29T20:12:23.832Z,49.00
2018-04-29T20:14:51.350Z,48.90
2018-04-29T20:17:18.894Z,48.80
2018-04-29T20:19:46.399Z,48.90
2018-04-29T20:22:14.660Z,49.00
2018-04-29T20:24:42.951Z,49.00
2018-04-29T20:27:10.468Z,49.00
2018-04-29T20:29:38.020Z,49.00
2018-04-29T20:32:05.534Z,49.10
2018-04-29T20:34:33.060Z,49.00
2018-04-29T20:37:01.336Z,49.20
2018-04-29T20:39:29.625Z,49.30
2018-04-29T20:41:57.924Z,49.20
2018-04-29T20:44:25.461Z,49.30
2018-04-29T20:46:53.749Z,49.20
2018-04-29T20:49:21.301Z,49.20
2018-04-29T20:51:48.800Z,49.20
2018-04-29T20:54:16.312Z,49.30
2018-04-29T20:56:43.840Z,49.30
2018-04-29T20:59:11.418Z,49.40
2018-04-29T21:01:41.639Z,49.60
2018-04-29T21:04:09.909Z,49.50
2018-04-29T21:06:38.321Z,49.60
2018-04-29T21:09:08.336Z,49.50
2018-04-29T21:11:35.854Z,49.60
2018-04-29T21:14:04.130Z,49.60
2018-04-29T21:16:31.656Z,49.60
2018-04-29T21:18:59.188Z,49.60
2018-04-29T21:21:27.044Z,49.60
2018-04-29T21:23:54.661Z,49.60
2018-04-29T21:26:22.204Z,49.70
2018-04-29T21:28:49.723Z,49.70
2018-04-29T21:31:17.591Z,49.80
2018-04-29T21:33:45.115Z,49.80
2018-04-29T21:36:13.423Z,49.80
2018-04-29T21:38:40.951Z,49.70
2018-04-29T21:41:09.240Z,50.40
2018-04-29T21:43:36.760Z,49.70
2018-04-29T21:46:05.059Z,49.80
2018-04-29T21:48:33.331Z,49.70
2018-04-29T21:51:01.609Z,49.60
2018-04-29T21:53:29.905Z,49.90
2018-04-29T21:55:57.427Z,49.90
2018-04-29T21:58:27.681Z,49.90
2018-04-29T22:00:56.166Z,49.90
2018-04-29T22:03:23.698Z,50.00
2018-04-29T22:05:52.110Z,50.20
2018-04-29T22:08:19.974Z,50.20
2018-04-29T22:10:48.774Z,50.20
2018-04-29T22:13:17.597Z,50.20
2018-04-29T22:15:46.248Z,50.20
2018-04-29T22:18:13.775Z,50.10
2018-04-29T22:20:41.557Z,50.10
2018-04-29T22:23:11.399Z,50.00
2018-04-29T22:25:39.714Z,50.00
2018-04-29T22:28:08.008Z,50.00
2018-04-29T22:30:35.689Z,49.90
2018-04-29T22:33:04.170Z,49.90
2018-04-29T22:35:32.608Z,49.90
2018-04-29T22:38:00.124Z,49.90
2018-04-29T22:40:29.212Z,49.90
2018-04-29T22:42:56.741Z,49.90
2018-04-29T22:45:26.212Z,49.80
2018-04-29T22:47:54.518Z,50.00
2018-04-29T22:50:22.040Z,50.00
2018-04-29T22:52:50.335Z,49.90
2018-04-29T22:55:17.864Z,49.90
2018-04-29T22:57:48.119Z,50.00
2018-04-29T23:00:15.616Z,49.80
2018-04-29T23:02:43.167Z,49.80
2018-04-29T23:05:10.679Z,49.80
2018-04-29T23:07:38.976Z,49.80
2018-04-29T23:10:06.510Z,49.80
2018-04-29T23:12:34.813Z,49.90
2018-04-29T23:15:02.336Z,49.80
2018-04-29T23:17:30.623Z,49.90
2018-04-29T23:19:58.924Z,49.80
2018-04-29T23:22:26.419Z,49.70
2018-04-29T23:24:53.943Z,49.80
2018-04-29T23:27:21.455Z,49.80
2018-04-29T23:29:49.749Z,49.80
2018-04-29T23:32:17.256Z,49.80
2018-04-29T23:34:44.789Z,49.80
2018-04-29T23:37:12.288Z,49.80
2018-04-29T23:39:39.829Z,49.80
2018-04-29T23:42:07.340Z,49.80
2018-04-29T23:44:34.850Z,49.80
2018-04-29T23:47:02.376Z,49.80
2018-04-29T23:49:29.896Z,49.70
2018-04-29T23:51:58.176Z,49.70
2018-04-29T23:54:26.450Z,49.70
2018-04-29T23:56:54.781Z,49.70
2018-04-29T23:59:22.307Z,49.70
